Time;durP1;ratioP1;P1;durP2;ratioP2;P2;SDS_P1;SDS_P2;PMS_P1;PMS_P2;Temp;Humidity;BMP_temperature;BMP_pressure;BME280_temperature;BME280_humidity;BME280_pressure;Samples;Min_cycle;Max_cycle;Signal;HPM_P1;HPM_P2
2022/04/30 06:03:33;;;;;;;;;;;;;;;;;;;;;
2022/04/30 06:45:29;;;;;;;;;49.67;40.33;;;;;10.29;100.00;102301.66;6123451;23;44842;-84
2022/04/30 12:45:31;;;;;;;;;8.80;5.60;;;;;16.68;72.67;102157.88;6246465;22;46219;-85
2022/04/30 14:04:04;;;;;;;;;6.60;4.80;;;;;20.62;49.95;102093.66;6112694;22;1536105;-86
2022/04/30 14:16:54;;;;;;;;;4.20;4.20;;;;;19.76;42.40;102097.44;5988049;23;45379;-85
2022/04/30 15:21:50;;;;;;;;;5.00;5.00;;;;;20.68;41.24;102019.34;6055267;22;2905454;-86
2022/04/30 15:24:32;;;;;;;;;8.40;8.40;;;;;20.62;41.34;102041.50;6253698;22;45292;-86
2022/04/30 15:34:43;;;;;;;;;7.60;7.60;;;;;20.69;39.44;102053.44;6099408;23;44945;-86
2022/04/30 16:47:18;;;;;;;;;9.00;9.00;;;;;20.64;42.59;102034.09;6091964;23;45266;-85
2022/04/30 17:00:57;;;;;;;;;13.60;12.20;;;;;20.10;43.81;101997.47;5676595;25;44818;-84
2022/04/30 17:07:46;;;;;;;;;11.00;8.00;;;;;20.45;43.08;102019.53;5660154;25;45556;-84
2022/04/30 19:43:25;;;;;;;;;14.67;14.00;;;;;13.82;94.42;102063.91;6281700;22;1314983;-86
2022/04/30 19:46:25;;;;;;;;;12.00;12.00;;;;;13.78;96.20;102060.56;6307800;22;44835;-85
2022/04/30 19:48:51;;;;;;;;;17.00;14.25;;;;;13.74;95.90;102052.81;6219700;22;46232;-85
2022/04/30 19:51:17;;;;;;;;;15.50;14.25;;;;;13.67;95.41;102059.47;6218768;22;44710;-85
2022/04/30 19:53:53;;;;;;;;;14.25;14.00;;;;;13.62;96.52;102059.72;6212564;22;45402;-85
2022/04/30 19:56:52;;;;;;;;;13.00;10.75;;;;;13.63;96.98;102059.66;6187968;22;44830;-85
2022/04/30 19:59:27;;;;;;;;;16.25;15.00;;;;;13.60;97.17;102061.63;6191251;22;47028;-85
2022/04/30 20:02:14;;;;;;;;;17.75;16.00;;;;;13.55;98.12;102072.59;6224897;22;44854;-86
2022/04/30 20:08:18;;;;;;;;;11.50;11.50;;;;;13.42;99.04;102082.25;6154471;23;45402;-87
2022/04/30 20:17:20;;;;;;;;;12.75;12.50;;;;;13.23;99.65;102069.09;6118233;23;44829;-85
2022/04/30 20:20:16;;;;;;;;;15.00;11.50;;;;;13.26;98.94;102076.06;6127719;23;45614;-86
2022/04/30 20:22:44;;;;;;;;;14.50;11.50;;;;;13.17;99.38;102064.06;6130012;23;46823;-85
2022/04/30 20:25:28;;;;;;;;;15.25;13.75;;;;;13.08;98.44;102075.25;6132635;23;44846;-84
2022/04/30 20:29:10;;;;;;;;;15.25;12.75;;;;;13.07;98.44;102081.56;6161450;23;45347;-87
2022/04/30 20:37:32;;;;;;;;;15.75;13.25;;;;;12.99;97.84;102091.78;5981624;23;45302;-86
2022/04/30 20:39:58;;;;;;;;;10.50;9.25;;;;;12.95;98.85;102088.41;5985775;23;44799;-86
2022/04/30 20:45:26;;;;;;;;;11.25;8.25;;;;;12.75;99.79;102088.66;6029419;23;45048;-84
2022/04/30 20:48:47;;;;;;;;;12.50;10.25;;;;;12.64;99.23;102097.22;6044967;23;45277;-86
2022/04/30 20:51:29;;;;;;;;;12.25;12.00;;;;;12.59;100.00;102091.28;6024972;23;44724;-85
2022/04/30 20:54:00;;;;;;;;;18.50;13.25;;;;;12.57;100.00;102080.72;6037649;23;44772;-86
2022/04/30 20:56:46;;;;;;;;;12.00;10.75;;;;;12.54;100.00;102075.53;6039334;23;45259;-85
2022/04/30 20:59:21;;;;;;;;;14.75;13.25;;;;;12.44;100.00;102082.31;6040651;23;44796;-85
2022/04/30 21:01:53;;;;;;;;;4.75;4.00;;;;;12.35;100.00;102083.66;6103002;23;44745;-85
2022/04/30 21:04:21;;;;;;;;;12.50;11.25;;;;;12.33;99.99;102085.56;6160146;23;44938;-85
2022/04/30 21:06:47;;;;;;;;;11.75;11.75;;;;;12.33;99.51;102087.34;6157609;23;45208;-85
2022/04/30 21:09:39;;;;;;;;;10.75;10.50;;;;;12.25;100.00;102079.75;6158761;23;44734;-84
2022/04/30 21:12:09;;;;;;;;;15.25;12.25;;;;;12.23;98.38;102078.09;6157224;23;44803;-86
2022/04/30 21:14:34;;;;;;;;;16.00;14.75;;;;;12.19;100.00;102077.41;6130242;23;44925;-85
2022/04/30 21:17:06;;;;;;;;;11.75;11.75;;;;;12.16;99.46;102085.56;6128113;23;45906;-85
2022/04/30 21:19:36;;;;;;;;;11.25;10.25;;;;;12.09;100.00;102101.00;6129239;23;44629;-85
2022/04/30 21:22:07;;;;;;;;;11.25;11.00;;;;;12.02;100.00;102090.72;6097789;23;44875;-83
2022/04/30 21:24:34;;;;;;;;;10.75;10.25;;;;;11.98;100.00;102083.84;6099252;23;44807;-86
2022/04/30 21:27:06;;;;;;;;;12.50;11.25;;;;;11.97;100.00;102085.63;6090715;23;45236;-86
2022/04/30 21:29:32;;;;;;;;;9.75;9.75;;;;;11.96;100.00;102075.06;6099068;23;44775;-86
2022/04/30 21:31:58;;;;;;;;;13.00;12.50;;;;;11.90;100.00;102078.06;6097937;23;44741;-84
2022/04/30 21:34:23;;;;;;;;;14.00;14.00;;;;;11.87;100.00;102083.53;6072892;23;44816;-85
2022/04/30 21:36:52;;;;;;;;;10.75;9.50;;;;;11.78;100.00;102075.03;6072027;23;46515;-84
2022/04/30 21:39:17;;;;;;;;;13.75;11.25;;;;;11.76;100.00;102065.41;6095564;23;45379;-84
2022/04/30 21:41:52;;;;;;;;;8.50;7.25;;;;;11.72;100.00;102070.03;6096160;23;45404;-83
2022/04/30 21:44:20;;;;;;;;;12.00;10.50;;;;;11.68;100.00;102075.56;6078732;23;44781;-85
2022/04/30 21:46:45;;;;;;;;;14.75;14.50;;;;;11.64;100.00;102061.53;6103106;23;45272;-85
2022/04/30 21:49:11;;;;;;;;;12.25;10.25;;;;;11.64;100.00;102077.53;6129112;23;45154;-84
2022/04/30 21:51:37;;;;;;;;;12.00;11.25;;;;;11.61;100.00;102066.19;6105859;23;45069;-84
2022/04/30 21:54:02;;;;;;;;;9.25;9.25;;;;;11.49;100.00;102086.25;6153437;23;44801;-84
2022/04/30 22:16:27;;;;;;;;;15.50;14.00;;;;;11.12;100.00;102103.13;6007337;23;45446;-85
2022/04/30 22:18:52;;;;;;;;;13.00;13.00;;;;;11.05;100.00;102082.16;5897739;24;45493;-85
2022/04/30 22:21:28;;;;;;;;;12.00;12.00;;;;;11.04;100.00;102093.72;5874817;24;46775;-86
2022/04/30 22:23:53;;;;;;;;;13.25;9.50;;;;;11.07;100.00;102092.72;5900614;24;44849;-84
2022/04/30 22:27:28;;;;;;;;;;;;;;;;;;;;;
2022/04/30 22:30:48;;;;;;;;;12.67;12.67;;;;;10.94;100.00;102086.25;5896888;24;71036;-85
2022/04/30 22:34:02;;;;;;;;;;;;;;;;;;;;;
2022/04/30 22:36:58;;;;;;;;;12.50;12.50;;;;;10.94;100.00;102099.56;5861705;24;71965;-85
2022/04/30 23:12:20;;;;;;;;;;;;;;;;;;;;;
2022/04/30 23:44:24;;;;;;;;;9.00;9.00;;;;;10.11;100.00;102071.38;5922857;24;44979;-84
2022/04/30 23:47:16;;;;;;;;;10.75;9.25;;;;;10.13;100.00;102074.81;5837586;24;44889;-84
2022/04/30 23:49:47;;;;;;;;;15.25;12.25;;;;;10.12;100.00;102062.47;5857157;24;45389;-84
2022/04/30 23:52:51;;;;;;;;;11.00;9.00;;;;;10.07;100.00;102067.13;5841011;24;45535;-84
2022/04/30 23:55:23;;;;;;;;;15.00;15.00;;;;;9.99;100.00;102050.66;5786477;24;45364;-84
